Time;durP1;ratioP1;P1;durP2;ratioP2;P2;SDS_P1;SDS_P2;PMS_P1;PMS_P2;Temp;Humidity;BMP_temperature;BMP_pressure;BME280_temperature;BME280_humidity;BME280_pressure;Samples;Min_cycle;Max_cycle;Signal;HPM_P1;HPM_P2
2022/11/03 00:06:13;;;;;;;17.2;24.4;;;;;;;9.3;83.2;99540;;;;
2022/11/03 00:16:41;;;;;;;17.2;24.4;;;;;;;9.4;83.6;99540;;;;
2022/11/03 00:27:41;;;;;;;17.2;24.4;;;;;;;9.3;84.1;99540;;;;
2022/11/03 00:38:41;;;;;;;15.2;21.5;;;;;;;9.1;84.1;99540;;;;
2022/11/03 00:49:41;;;;;;;15.2;21.5;;;;;;;8.9;84.1;99540;;;;
2022/11/03 00:59:41;;;;;;;11.7;20.6;;;;;;;8.7;83.8;99540;;;;
2022/11/03 01:11:42;;;;;;;11.7;20.6;;;;;;;8.4;83.9;99540;;;;
2022/11/03 01:21:41;;;;;;;11.7;20.6;;;;;;;8.2;84.1;99540;;;;
2022/11/03 01:32:41;;;;;;;7.9;14.8;;;;;;;7.9;84.1;99540;;;;
2022/11/03 01:43:41;;;;;;;7.9;14.8;;;;;;;7.8;84.6;99550;;;;
2022/11/03 01:53:41;;;;;;;7.9;14.8;;;;;;;7.6;84.9;99550;;;;
2022/11/03 02:04:41;;;;;;;7.5;12.3;;;;;;;7.4;85.3;99540;;;;
2022/11/03 02:15:41;;;;;;;7.5;12.3;;;;;;;7.4;86;99540;;;;
2022/11/03 02:25:41;;;;;;;7.5;12.3;;;;;;;7.4;86.5;99550;;;;
2022/11/03 02:36:41;;;;;;;7.8;15.3;;;;;;;7.3;86.5;99550;;;;
2022/11/03 02:46:41;;;;;;;7.8;15.3;;;;;;;7.2;86.8;99550;;;;
2022/11/03 02:57:41;;;;;;;7.8;15.3;;;;;;;7.1;86.8;99550;;;;
2022/11/03 03:07:41;;;;;;;6.6;13.1;;;;;;;6.9;86.7;99560;;;;
2022/11/03 03:18:41;;;;;;;6.6;13.1;;;;;;;6.9;86.6;99570;;;;
2022/11/03 03:29:41;;;;;;;6.3;11;;;;;;;6.9;86.8;99560;;;;
2022/11/03 03:39:41;;;;;;;6.3;11;;;;;;;6.8;86.9;99560;;;;
2022/11/03 03:49:41;;;;;;;6.3;11;;;;;;;6.9;87.4;99560;;;;
2022/11/03 04:00:41;;;;;;;6.7;14.2;;;;;;;6.8;87.1;99560;;;;
2022/11/03 04:22:15;;;;;;;6.7;14.2;;;;;;;6.6;86.7;99550;;;;
2022/11/03 04:31:41;;;;;;;7.4;13.4;;;;;;;6.2;86.7;99540;;;;
2022/11/03 04:41:41;;;;;;;7.4;13.4;;;;;;;6;86.4;99540;;;;
2022/11/03 04:52:41;;;;;;;7.4;13.4;;;;;;;5.7;86.5;99530;;;;
2022/11/03 05:03:42;;;;;;;6.4;11.4;;;;;;;5.7;87.8;99540;;;;
2022/11/03 05:13:41;;;;;;;6.4;11.4;;;;;;;5.6;88.3;99540;;;;
2022/11/03 05:24:41;;;;;;;6.4;11.4;;;;;;;5.6;88.8;99530;;;;
2022/11/03 05:34:41;;;;;;;5.8;11.9;;;;;;;5.5;88.9;99530;;;;
2022/11/03 05:44:41;;;;;;;5.8;11.9;;;;;;;5.4;88.7;99530;;;;
2022/11/03 05:55:41;;;;;;;5.8;11.9;;;;;;;5.2;88.3;99530;;;;
2022/11/03 06:06:41;;;;;;;6.2;12.1;;;;;;;5.2;88.3;99540;;;;
2022/11/03 06:17:41;;;;;;;6.2;12.1;;;;;;;5.2;88.4;99540;;;;
2022/11/03 06:27:41;;;;;;;6.2;12.1;;;;;;;5.3;88.5;99540;;;;
2022/11/03 06:38:41;;;;;;;5.7;12.6;;;;;;;5.5;88.5;99550;;;;
2022/11/03 06:48:41;;;;;;;5.7;12.6;;;;;;;5.7;88.8;99550;;;;
2022/11/03 06:58:41;;;;;;;7.9;14.6;;;;;;;5.9;88.9;99560;;;;
2022/11/03 07:08:41;;;;;;;7.9;14.6;;;;;;;6.2;88.9;99550;;;;
2022/11/03 07:18:41;;;;;;;7.9;14.6;;;;;;;6.5;89;99550;;;;
2022/11/03 07:29:41;;;;;;;10.6;21.7;;;;;;;6.9;88.9;99540;;;;
2022/11/03 07:40:41;;;;;;;10.6;21.7;;;;;;;7.4;88.9;99520;;;;
2022/11/03 07:50:41;;;;;;;10.6;21.7;;;;;;;7.8;88.6;99510;;;;
2022/11/03 08:01:41;;;;;;;12.8;17.8;;;;;;;8.3;88.1;99490;;;;
2022/11/03 08:12:41;;;;;;;12.8;17.8;;;;;;;8.8;87.5;99480;;;;
2022/11/03 08:22:41;;;;;;;12.8;17.8;;;;;;;9.4;87;99460;;;;
2022/11/03 08:33:41;;;;;;;10.9;17.1;;;;;;;10;86.2;99450;;;;
2022/11/03 08:43:41;;;;;;;10.9;17.1;;;;;;;10.6;84.5;99430;;;;
2022/11/03 08:54:41;;;;;;;10.9;17.1;;;;;;;11.1;82.2;99420;;;;
2022/11/03 09:04:41;;;;;;;9.7;15.5;;;;;;;11.7;79.8;99410;;;;
2022/11/03 09:14:41;;;;;;;9.7;15.5;;;;;;;12;74.7;99400;;;;
2022/11/03 09:24:41;;;;;;;9.7;15.5;;;;;;;12.4;73.1;99390;;;;
2022/11/03 09:35:41;;;;;;;4.3;8;;;;;;;12.7;71;99370;;;;
2022/11/03 09:45:41;;;;;;;4.3;8;;;;;;;13;67.9;99360;;;;
2022/11/03 09:56:41;;;;;;;4.3;8;;;;;;;13.2;66.3;99340;;;;
2022/11/03 10:06:41;;;;;;;3;8.7;;;;;;;13.3;64.6;99330;;;;
2022/11/03 10:16:41;;;;;;;3;8.7;;;;;;;13.5;64.3;99320;;;;
2022/11/03 10:27:41;;;;;;;3;8.7;;;;;;;13.7;63.7;99310;;;;
2022/11/03 10:37:41;;;;;;;4;7.2;;;;;;;14;64.1;99300;;;;
2022/11/03 10:48:41;;;;;;;4;7.2;;;;;;;14.1;63.4;99280;;;;
2022/11/03 10:58:41;;;;;;;3.9;7.2;;;;;;;14.4;63.1;99250;;;;
2022/11/03 11:09:42;;;;;;;3.9;7.2;;;;;;;14.3;63.1;99230;;;;
2022/11/03 11:20:41;;;;;;;3.9;7.2;;;;;;;14.4;62.3;99210;;;;
2022/11/03 11:30:42;;;;;;;4.3;7.7;;;;;;;14.6;61;99200;;;;
2022/11/03 11:41:41;;;;;;;4.3;7.7;;;;;;;14.8;61.9;99180;;;;
2022/11/03 11:51:41;;;;;;;4.3;7.7;;;;;;;14.8;60.6;99150;;;;
2022/11/03 12:02:41;;;;;;;4.5;10.9;;;;;;;15.1;60.4;99130;;;;
2022/11/03 12:12:41;;;;;;;4.5;10.9;;;;;;;15.2;60.9;99110;;;;
2022/11/03 12:22:42;;;;;;;4.5;10.9;;;;;;;15.1;60.3;99090;;;;
2022/11/03 12:33:41;;;;;;;4.4;9.7;;;;;;;15.2;60.2;99070;;;;
2022/11/03 12:43:41;;;;;;;4.4;9.7;;;;;;;15.3;60.3;99070;;;;
2022/11/03 12:54:41;;;;;;;4.4;9.7;;;;;;;15.4;59.3;99050;;;;
2022/11/03 13:04:41;;;;;;;4.2;8;;;;;;;15.2;59.7;99040;;;;
2022/11/03 13:14:42;;;;;;;4.2;8;;;;;;;15.2;60.2;99020;;;;
2022/11/03 13:25:42;;;;;;;4.2;8;;;;;;;15;60.2;99010;;;;
2022/11/03 13:36:41;;;;;;;4.8;9;;;;;;;14.9;60.8;99000;;;;
2022/11/03 13:46:41;;;;;;;4.8;9;;;;;;;15;60.5;98990;;;;
2022/11/03 13:56:42;;;;;;;4.8;9;;;;;;;14.7;61.6;98980;;;;
2022/11/03 14:07:42;;;;;;;6.1;9.3;;;;;;;14.3;62.6;98960;;;;
2022/11/03 14:17:41;;;;;;;6.1;9.3;;;;;;;14;63.3;98960;;;;
2022/11/03 14:27:42;;;;;;;6.1;9.3;;;;;;;13.7;64.7;98950;;;;
2022/11/03 14:38:41;;;;;;;6.2;10.3;;;;;;;13.3;65.6;98940;;;;
2022/11/03 14:49:42;;;;;;;6.2;10.3;;;;;;;12.7;66.6;98930;;;;
2022/11/03 15:00:42;;;;;;;7.5;11.1;;;;;;;12.2;67.7;98920;;;;
2022/11/03 15:10:42;;;;;;;7.5;11.1;;;;;;;11.9;67.9;98910;;;;
2022/11/03 15:21:42;;;;;;;7.5;11.1;;;;;;;11.5;69.3;98910;;;;
2022/11/03 15:32:42;;;;;;;9.5;15;;;;;;;11.1;70.2;98900;;;;
2022/11/03 15:42:42;;;;;;;9.5;15;;;;;;;10.8;71;98900;;;;
2022/11/03 15:52:42;;;;;;;9.5;15;;;;;;;10.7;72;98890;;;;
2022/11/03 16:03:42;;;;;;;10.5;17.3;;;;;;;10.5;72.9;98880;;;;
2022/11/03 16:14:42;;;;;;;10.5;17.3;;;;;;;10.5;73.5;98880;;;;
2022/11/03 16:24:43;;;;;;;10.5;17.3;;;;;;;10.5;74.2;98860;;;;
2022/11/03 16:35:42;;;;;;;13.3;21.3;;;;;;;10.5;73.9;98860;;;;
2022/11/03 16:46:42;;;;;;;13.3;21.3;;;;;;;10.4;74.5;98850;;;;
2022/11/03 16:56:42;;;;;;;13.3;21.3;;;;;;;10.5;75.4;98840;;;;
2022/11/03 17:07:42;;;;;;;18;24.5;;;;;;;10.6;75.6;98830;;;;
2022/11/03 17:18:42;;;;;;;18;24.5;;;;;;;10.6;75.5;98820;;;;
2022/11/03 17:29:42;;;;;;;16.2;22.1;;;;;;;10.5;75.6;98790;;;;
2022/11/03 17:39:42;;;;;;;16.2;22.1;;;;;;;10.5;75.7;98780;;;;
2022/11/03 17:49:42;;;;;;;16.2;22.1;;;;;;;10.3;76.1;98760;;;;
2022/11/03 17:59:42;;;;;;;15.8;22;;;;;;;10.1;76.5;98750;;;;
2022/11/03 18:10:42;;;;;;;15.8;22;;;;;;;9.9;76.9;98750;;;;
2022/11/03 18:20:42;;;;;;;15.8;22;;;;;;;9.9;77.4;98750;;;;
2022/11/03 18:30:42;;;;;;;37.5;54.1;;;;;;;10;77.8;98740;;;;
2022/11/03 18:41:42;;;;;;;37.5;54.1;;;;;;;10.1;77.8;98720;;;;
2022/11/03 18:51:42;;;;;;;37.5;54.1;;;;;;;10.1;77.9;98700;;;;
2022/11/03 19:02:42;;;;;;;23.5;29.4;;;;;;;10.2;77.3;98690;;;;
2022/11/03 19:12:42;;;;;;;23.5;29.4;;;;;;;10.2;77.4;98660;;;;
2022/11/03 19:22:42;;;;;;;23.5;29.4;;;;;;;10.1;77.6;98660;;;;
2022/11/03 19:33:42;;;;;;;20.8;31.3;;;;;;;10;78.3;98640;;;;
2022/11/03 19:44:43;;;;;;;20.8;31.3;;;;;;;9.8;79;98620;;;;
2022/11/03 19:54:42;;;;;;;20.8;31.3;;;;;;;9.9;78.6;98610;;;;
2022/11/03 20:05:42;;;;;;;21.6;28.4;;;;;;;9.8;78.3;98600;;;;
2022/11/03 20:16:42;;;;;;;21.6;28.4;;;;;;;9.8;78.6;98590;;;;
2022/11/03 20:26:42;;;;;;;21.6;28.4;;;;;;;9.9;78.3;98580;;;;
2022/11/03 20:36:42;;;;;;;26.6;35;;;;;;;9.9;78.9;98570;;;;
2022/11/03 20:47:42;;;;;;;26.6;35;;;;;;;9.8;79;98550;;;;
2022/11/03 20:58:42;;;;;;;21;29;;;;;;;9.9;79;98540;;;;
2022/11/03 21:09:42;;;;;;;21;29;;;;;;;9.9;78.8;98530;;;;
2022/11/03 21:20:43;;;;;;;21;29;;;;;;;9.7;79.1;98510;;;;
2022/11/03 21:31:42;;;;;;;25;32.2;;;;;;;9.5;79.2;98510;;;;
2022/11/03 21:52:42;;;;;;;25;32.2;;;;;;;9.3;79.5;98500;;;;
2022/11/03 22:03:42;;;;;;;22.2;28.9;;;;;;;9.2;80;98480;;;;
2022/11/03 22:36:42;;;;;;;23.1;27.8;;;;;;;8.9;81.5;98440;;;;
2022/11/03 22:46:42;;;;;;;23.1;27.8;;;;;;;9;81.2;98430;;;;
2022/11/03 22:57:42;;;;;;;22.4;31.4;;;;;;;8.9;81;98410;;;;
2022/11/03 23:08:42;;;;;;;22.4;31.4;;;;;;;8.7;81.5;98400;;;;
2022/11/03 23:28:42;;;;;;;21.2;29.8;;;;;;;8.5;82;98370;;;;
2022/11/03 23:38:42;;;;;;;21.2;29.8;;;;;;;8.5;81.2;98350;;;;
2022/11/03 23:49:42;;;;;;;21.2;29.8;;;;;;;8.4;81.4;98350;;;;
2022/11/03 23:59:42;;;;;;;19.2;27.6;;;;;;;8.3;81.6;98340;;;;
